createdAt,value
2022-07-25T00:00:31.543Z,65.08
2022-07-25T00:01:31.583Z,64.18
2022-07-25T00:02:31.517Z,65.08
2022-07-25T00:03:31.524Z,64.67
2022-07-25T00:04:31.535Z,65.17
2022-07-25T00:05:37.389Z,65.27
2022-07-25T00:06:32.474Z,64.97
2022-07-25T00:07:31.471Z,65.27
2022-07-25T00:08:31.476Z,65.70
2022-07-25T00:09:31.449Z,65.61
2022-07-25T00:10:31.437Z,65.80
2022-07-25T00:11:31.420Z,66.00
2022-07-25T00:12:31.407Z,65.83
2022-07-25T00:13:31.430Z,65.20
2022-07-25T00:14:31.387Z,65.91
2022-07-25T00:15:31.385Z,65.53
2022-07-25T00:16:31.455Z,66.13
2022-07-25T00:17:31.361Z,66.50
2022-07-25T00:18:31.346Z,66.13
2022-07-25T00:19:31.349Z,66.63
2022-07-25T00:20:31.327Z,66.73
2022-07-25T00:21:31.319Z,67.63
2022-07-25T00:22:31.302Z,66.53
2022-07-25T00:23:31.289Z,67.23
2022-07-25T00:24:31.295Z,67.23
2022-07-25T00:25:31.277Z,67.57
2022-07-25T00:26:32.039Z,67.26
2022-07-25T00:27:31.252Z,67.57
2022-07-25T00:28:31.240Z,67.16
2022-07-25T00:29:31.230Z,67.16
2022-07-25T00:30:31.223Z,67.36
2022-07-25T00:31:31.253Z,67.46
2022-07-25T00:32:31.189Z,67.26
2022-07-25T00:33:31.188Z,67.26
2022-07-25T00:34:31.171Z,67.26
2022-07-25T00:35:31.180Z,67.16
2022-07-25T00:36:31.150Z,67.57
2022-07-25T00:37:31.142Z,67.19
2022-07-25T00:38:31.122Z,67.46
2022-07-25T00:39:31.120Z,67.49
2022-07-25T00:40:31.116Z,67.80
2022-07-25T00:41:31.099Z,67.49
2022-07-25T00:42:31.087Z,67.60
2022-07-25T00:43:31.077Z,67.40
2022-07-25T00:44:31.058Z,67.69
2022-07-25T00:45:31.055Z,67.49
2022-07-25T00:46:31.091Z,67.40
2022-07-25T00:47:31.034Z,67.57
2022-07-25T00:48:31.080Z,67.16
2022-07-25T00:49:31.011Z,67.36
2022-07-25T00:50:31.000Z,67.66
2022-07-25T00:51:31.006Z,67.16
2022-07-25T00:52:30.971Z,67.69
2022-07-25T00:53:30.959Z,67.46
2022-07-25T00:54:30.947Z,67.57
2022-07-25T00:55:30.947Z,67.46
2022-07-25T00:56:30.953Z,67.66
2022-07-25T00:57:30.916Z,66.66
2022-07-25T00:58:30.914Z,67.69
2022-07-25T00:59:30.896Z,66.60
2022-07-25T01:00:30.895Z,66.70
2022-07-25T01:01:30.934Z,66.56
2022-07-25T01:02:30.972Z,66.17
2022-07-25T01:03:30.855Z,66.39
2022-07-25T01:04:30.845Z,66.30
2022-07-25T01:05:30.826Z,66.36
2022-07-25T01:06:30.814Z,65.90
2022-07-25T01:07:30.825Z,66.60
2022-07-25T01:08:30.801Z,66.36
2022-07-25T01:09:30.790Z,66.39
2022-07-25T01:10:30.777Z,65.90
2022-07-25T01:11:30.768Z,66.09
2022-07-25T01:12:30.770Z,65.90
2022-07-25T01:13:30.751Z,66.00
2022-07-25T01:14:30.727Z,66.00
2022-07-25T01:15:30.800Z,65.80
2022-07-25T01:16:30.713Z,66.56
2022-07-25T01:17:30.734Z,66.00
2022-07-25T01:18:30.689Z,65.80
2022-07-25T01:19:30.678Z,65.90
2022-07-25T01:20:30.668Z,66.09
2022-07-25T01:21:30.650Z,65.90
2022-07-25T01:22:30.646Z,66.00
2022-07-25T01:23:30.650Z,66.30
2022-07-25T01:24:30.619Z,66.30
2022-07-25T01:25:30.605Z,66.09
2022-07-25T01:26:30.594Z,66.20
2022-07-25T01:27:30.591Z,66.50
2022-07-25T01:28:30.597Z,66.20
2022-07-25T01:29:30.561Z,66.09
2022-07-25T01:30:30.561Z,66.30
2022-07-25T01:31:30.596Z,66.53
2022-07-25T01:32:30.527Z,66.70
2022-07-25T01:33:30.547Z,66.50
2022-07-25T01:34:30.512Z,66.43
2022-07-25T01:35:30.492Z,66.73
2022-07-25T01:36:30.497Z,66.89
2022-07-25T01:37:30.479Z,66.53
2022-07-25T01:38:30.496Z,67.69
2022-07-25T01:39:30.457Z,66.50
2022-07-25T01:40:30.443Z,66.53
2022-07-25T01:41:30.428Z,67.43
2022-07-25T01:42:30.427Z,67.13
2022-07-25T01:43:30.415Z,67.43
2022-07-25T01:44:30.422Z,66.80
2022-07-25T01:45:30.390Z,67.43
2022-07-25T01:46:30.466Z,67.33
2022-07-25T01:47:30.368Z,67.43
2022-07-25T01:48:30.417Z,67.03
2022-07-25T01:49:30.351Z,67.43
2022-07-25T01:50:30.335Z,67.43
2022-07-25T01:51:30.326Z,67.43
2022-07-25T01:52:30.315Z,67.33
2022-07-25T01:53:30.301Z,67.53
2022-07-25T01:54:30.317Z,67.72
2022-07-25T01:55:30.273Z,67.83
2022-07-25T01:56:31.999Z,68.13
2022-07-25T01:57:31.093Z,68.13
2022-07-25T01:58:30.239Z,68.13
2022-07-25T01:59:30.249Z,68.36
2022-07-25T02:00:30.232Z,68.13
2022-07-25T02:01:30.236Z,68.36
2022-07-25T02:02:30.203Z,68.26
2022-07-25T02:03:30.189Z,68.56
2022-07-25T02:04:30.250Z,68.16
2022-07-25T02:05:30.179Z,67.96
2022-07-25T02:06:30.162Z,67.83
2022-07-25T02:07:30.144Z,68.16
2022-07-25T02:08:30.130Z,68.76
2022-07-25T02:09:30.126Z,68.82
2022-07-25T02:10:30.140Z,68.33
2022-07-25T02:11:30.102Z,68.76
2022-07-25T02:12:30.095Z,68.96
2022-07-25T02:13:30.077Z,68.56
2022-07-25T02:14:30.073Z,68.76
2022-07-25T02:15:30.063Z,68.46
2022-07-25T02:16:30.103Z,68.76
2022-07-25T02:17:30.150Z,68.56
2022-07-25T02:18:30.032Z,68.56
2022-07-25T02:19:30.014Z,68.66
2022-07-25T02:20:30.005Z,68.06
2022-07-25T02:21:30.000Z,68.09
2022-07-25T02:22:29.981Z,68.06
2022-07-25T02:23:29.968Z,68.96
2022-07-25T02:24:29.959Z,68.26
2022-07-25T02:25:29.940Z,68.16
2022-07-25T02:26:29.954Z,68.76
2022-07-25T02:27:29.923Z,68.66
2022-07-25T02:28:29.918Z,68.09
2022-07-25T02:29:29.894Z,68.36
2022-07-25T02:30:29.928Z,68.69
2022-07-25T02:31:29.875Z,68.69
2022-07-25T02:32:29.878Z,68.96
2022-07-25T02:33:29.857Z,68.49
2022-07-25T02:34:29.847Z,68.89
2022-07-25T02:35:29.843Z,68.69
2022-07-25T02:36:29.816Z,68.89
2022-07-25T02:37:29.818Z,69.19
2022-07-25T02:38:29.800Z,69.09
2022-07-25T02:39:29.788Z,69.19
2022-07-25T02:40:29.782Z,69.59
2022-07-25T02:41:29.766Z,69.79
2022-07-25T02:42:29.777Z,69.59
2022-07-25T02:43:29.743Z,68.69
2022-07-25T02:44:29.733Z,69.69
2022-07-25T02:45:29.715Z,69.89
2022-07-25T02:46:29.795Z,69.89
2022-07-25T02:47:29.691Z,69.23
2022-07-25T02:48:29.771Z,69.82
2022-07-25T02:49:29.677Z,69.62
2022-07-25T02:50:29.666Z,69.69
2022-07-25T02:51:29.657Z,69.49
2022-07-25T02:52:29.644Z,69.89
2022-07-25T02:53:54.904Z,69.93
2022-07-25T02:54:30.621Z,69.82
2022-07-25T02:55:29.610Z,69.99
2022-07-25T02:56:30.170Z,69.82
2022-07-25T02:57:29.584Z,69.93
2022-07-25T02:58:29.583Z,69.73
2022-07-25T02:59:32.411Z,70.23
2022-07-25T03:00:29.551Z,70.19
2022-07-25T03:01:29.612Z,70.73
2022-07-25T03:02:29.528Z,70.53
2022-07-25T03:03:29.510Z,70.39
2022-07-25T03:04:29.650Z,70.43
2022-07-25T03:05:29.499Z,70.83
2022-07-25T03:06:29.479Z,70.73
2022-07-25T03:07:29.464Z,70.23
2022-07-25T03:08:29.463Z,70.32
2022-07-25T03:09:29.463Z,70.43
2022-07-25T03:10:29.443Z,70.73
2022-07-25T03:11:29.428Z,70.53
2022-07-25T03:12:29.415Z,70.73
2022-07-25T03:13:29.398Z,70.86
2022-07-25T03:14:29.404Z,70.62
2022-07-25T03:15:29.385Z,70.76
2022-07-25T03:16:29.434Z,70.73
2022-07-25T03:17:29.357Z,70.83
2022-07-25T03:18:29.346Z,70.66
2022-07-25T03:19:29.352Z,70.46
2022-07-25T03:20:29.327Z,70.76
2022-07-25T03:21:29.316Z,71.23
2022-07-25T03:22:29.299Z,71.36
2022-07-25T03:23:29.292Z,70.83
2022-07-25T03:24:29.298Z,71.16
2022-07-25T03:25:29.263Z,71.26
2022-07-25T03:26:29.262Z,71.96
2022-07-25T03:27:29.252Z,71.76
2022-07-25T03:28:29.234Z,71.46
2022-07-25T03:29:29.218Z,71.56
2022-07-25T03:30:29.227Z,71.66
2022-07-25T03:31:29.267Z,71.56
2022-07-25T03:32:29.201Z,70.76
2022-07-25T03:33:29.182Z,70.76
2022-07-25T03:34:29.164Z,70.76
2022-07-25T03:35:29.167Z,70.56
2022-07-25T03:36:29.140Z,70.36
2022-07-25T03:37:29.128Z,70.66
2022-07-25T03:38:29.116Z,70.56
2022-07-25T03:39:29.125Z,70.76
2022-07-25T03:40:29.113Z,70.76
2022-07-25T03:41:29.090Z,70.56
2022-07-25T03:42:32.246Z,70.66
2022-07-25T03:43:30.067Z,70.46
2022-07-25T03:44:29.050Z,70.79
2022-07-25T03:45:29.116Z,70.96
2022-07-25T03:46:29.148Z,71.19
2022-07-25T03:47:29.025Z,71.39
2022-07-25T03:48:29.053Z,71.30
2022-07-25T03:49:29.006Z,71.80
2022-07-25T03:50:28.999Z,71.56
2022-07-25T03:51:28.994Z,71.50
2022-07-25T03:52:28.970Z,71.69
2022-07-25T03:53:28.950Z,71.19
2022-07-25T03:54:28.947Z,71.26
2022-07-25T03:55:28.946Z,71.39
2022-07-25T03:56:28.957Z,71.19
2022-07-25T03:57:28.904Z,71.69
2022-07-25T03:58:28.912Z,71.69
2022-07-25T03:59:28.888Z,71.80
2022-07-25T04:00:28.881Z,71.30
2022-07-25T04:01:28.966Z,71.43
2022-07-25T04:02:28.961Z,71.19
2022-07-25T04:03:28.844Z,71.59
2022-07-25T04:04:28.826Z,71.19
2022-07-25T04:05:28.821Z,71.00
2022-07-25T04:06:28.828Z,70.89
2022-07-25T04:07:28.795Z,71.59
2022-07-25T04:08:28.781Z,71.59
2022-07-25T04:09:33.464Z,71.89
2022-07-25T04:10:28.767Z,71.80
2022-07-25T04:11:28.750Z,71.50
2022-07-25T04:12:28.749Z,71.69
2022-07-25T04:13:28.732Z,71.30
2022-07-25T04:14:28.720Z,71.30
2022-07-25T04:15:28.701Z,71.30
2022-07-25T04:16:28.715Z,71.39
2022-07-25T04:17:28.695Z,70.79
2022-07-25T04:18:29.005Z,70.29
2022-07-25T04:19:28.974Z,70.19
2022-07-25T04:20:28.656Z,70.59
2022-07-25T04:21:28.646Z,70.69
2022-07-25T04:22:28.641Z,71.00
2022-07-25T04:23:28.620Z,70.56
2022-07-25T04:24:28.603Z,70.36
2022-07-25T04:25:28.597Z,70.86
2022-07-25T04:26:28.594Z,70.26
2022-07-25T04:27:28.596Z,69.99
2022-07-25T04:28:28.559Z,69.86
2022-07-25T04:29:28.556Z,69.46
2022-07-25T04:30:28.536Z,70.46
2022-07-25T04:31:28.561Z,69.66
2022-07-25T04:32:28.530Z,69.76
2022-07-25T04:33:28.503Z,69.62
2022-07-25T04:34:28.498Z,69.43
2022-07-25T04:35:28.484Z,69.02
2022-07-25T04:36:28.468Z,69.12
2022-07-25T04:37:28.482Z,68.82
2022-07-25T04:38:28.450Z,69.02
2022-07-25T04:39:28.445Z,68.82
2022-07-25T04:40:28.424Z,68.99
2022-07-25T04:41:28.417Z,68.69
2022-07-25T04:42:28.429Z,68.69
2022-07-25T04:43:28.409Z,68.89
2022-07-25T04:44:28.380Z,68.59
2022-07-25T04:45:28.414Z,68.69
2022-07-25T04:46:28.369Z,68.89
2022-07-25T04:47:28.342Z,68.79
2022-07-25T04:48:28.389Z,68.29
2022-07-25T04:49:28.325Z,67.66
2022-07-25T04:50:28.315Z,67.56
2022-07-25T04:51:28.308Z,67.76
2022-07-25T04:52:28.288Z,67.66
2022-07-25T04:53:28.303Z,67.46
2022-07-25T04:54:28.272Z,67.56
2022-07-25T04:55:28.262Z,67.43
2022-07-25T04:56:28.252Z,67.46
2022-07-25T04:57:28.238Z,67.13
2022-07-25T04:58:28.245Z,66.23
2022-07-25T04:59:28.215Z,67.72
2022-07-25T05:00:28.205Z,66.30
2022-07-25T05:01:28.280Z,66.20
2022-07-25T05:02:28.247Z,66.09
2022-07-25T05:03:28.185Z,65.90
2022-07-25T05:04:28.162Z,65.30
2022-07-25T05:05:28.143Z,65.50
2022-07-25T05:06:28.151Z,64.87
2022-07-25T05:07:28.118Z,66.06
2022-07-25T05:08:28.132Z,65.53
2022-07-25T05:09:28.105Z,65.23
2022-07-25T05:10:28.086Z,64.94
2022-07-25T05:11:28.082Z,64.21
2022-07-25T05:12:28.072Z,64.21
2022-07-25T05:13:28.078Z,64.48
2022-07-25T05:14:28.048Z,63.78
2022-07-25T05:15:28.030Z,64.28
2022-07-25T05:16:28.092Z,64.18
2022-07-25T05:17:28.007Z,64.25
2022-07-25T05:18:28.014Z,63.75
2022-07-25T05:19:27.987Z,63.75
2022-07-25T05:20:27.980Z,63.65
2022-07-25T05:21:27.972Z,63.65
2022-07-25T05:22:29.085Z,64.25
2022-07-25T05:23:27.961Z,63.75
2022-07-25T05:24:27.937Z,62.82
2022-07-25T05:25:27.926Z,62.65
2022-07-25T05:26:27.905Z,63.32
2022-07-25T05:27:27.894Z,63.42
2022-07-25T05:28:27.905Z,64.01
2022-07-25T05:29:27.882Z,63.72
2022-07-25T05:30:27.864Z,62.92
2022-07-25T05:31:27.914Z,63.02
2022-07-25T05:32:27.842Z,64.12
2022-07-25T05:33:27.861Z,63.72
2022-07-25T05:34:27.819Z,63.62
2022-07-25T05:35:27.804Z,63.52
2022-07-25T05:36:27.798Z,63.62
2022-07-25T05:37:27.799Z,63.72
2022-07-25T05:38:27.789Z,63.72
2022-07-25T05:39:27.781Z,63.22
2022-07-25T05:40:27.757Z,63.22
2022-07-25T05:41:27.749Z,62.92
2022-07-25T05:42:27.734Z,63.72
2022-07-25T05:43:27.719Z,63.92
2022-07-25T05:44:27.716Z,63.98
2022-07-25T05:45:27.711Z,63.79
2022-07-25T05:46:27.748Z,63.49
2022-07-25T05:47:27.674Z,63.09
2022-07-25T05:48:27.725Z,63.19
2022-07-25T05:49:27.669Z,63.29
2022-07-25T05:50:27.657Z,63.29
2022-07-25T05:51:27.841Z,62.96
2022-07-25T05:52:27.616Z,63.06
2022-07-25T05:53:27.615Z,63.26
2022-07-25T05:54:27.642Z,63.16
2022-07-25T05:55:27.597Z,63.23
2022-07-25T05:56:27.573Z,62.83
2022-07-25T05:57:27.598Z,61.74
2022-07-25T05:58:29.928Z,61.51
2022-07-25T05:59:27.546Z,62.70
2022-07-25T06:00:27.548Z,62.60
2022-07-25T06:01:27.559Z,62.50
2022-07-25T06:02:27.679Z,62.01
2022-07-25T06:03:27.598Z,60.88
2022-07-25T06:04:27.567Z,61.80
2022-07-25T06:05:27.660Z,63.00
2022-07-25T06:06:27.458Z,62.30
2022-07-25T06:07:27.450Z,62.01
2022-07-25T06:08:27.443Z,62.01
2022-07-25T06:09:27.436Z,62.60
2022-07-25T06:10:27.490Z,62.21
2022-07-25T06:11:27.440Z,61.80
2022-07-25T06:12:27.394Z,61.58
2022-07-25T06:13:27.383Z,61.78
2022-07-25T06:14:27.372Z,61.88
2022-07-25T06:15:27.651Z,61.48
2022-07-25T06:16:27.458Z,62.57
2022-07-25T06:17:32.259Z,61.68
2022-07-25T06:18:28.328Z,61.48
2022-07-25T06:19:27.330Z,60.75
2022-07-25T06:20:27.389Z,60.56
2022-07-25T06:21:27.302Z,59.96
2022-07-25T06:22:27.310Z,60.26
2022-07-25T06:23:27.695Z,62.05
2022-07-25T06:24:27.260Z,60.16
2022-07-25T06:25:27.248Z,60.26
2022-07-25T06:26:27.243Z,60.46
2022-07-25T06:27:29.356Z,59.76
2022-07-25T06:28:27.223Z,61.25
2022-07-25T06:29:27.222Z,61.22
2022-07-25T06:30:27.198Z,60.23
2022-07-25T06:31:27.248Z,58.42
2022-07-25T06:32:27.179Z,60.20
2022-07-25T06:33:27.179Z,60.17
2022-07-25T06:34:28.896Z,59.28
2022-07-25T06:35:27.144Z,59.05
2022-07-25T06:36:32.162Z,58.33
2022-07-25T06:37:28.116Z,58.30
2022-07-25T06:38:27.134Z,57.09
2022-07-25T06:39:27.122Z,56.07
2022-07-25T06:40:27.091Z,56.46
2022-07-25T06:41:27.073Z,56.96
2022-07-25T06:42:27.065Z,56.84
2022-07-25T06:43:27.058Z,55.87
2022-07-25T06:44:27.049Z,56.74
2022-07-25T06:45:27.036Z,56.02
2022-07-25T06:46:27.046Z,54.73
2022-07-25T06:47:29.813Z,55.03
2022-07-25T06:48:28.028Z,54.53
2022-07-25T06:49:26.999Z,54.71
2022-07-25T06:50:26.981Z,54.73
2022-07-25T06:51:26.962Z,55.13
2022-07-25T06:52:26.957Z,55.22
2022-07-25T06:53:26.945Z,54.90
2022-07-25T06:54:26.964Z,54.73
2022-07-25T06:55:26.918Z,55.22
2022-07-25T06:56:26.912Z,54.83
2022-07-25T06:57:26.897Z,54.93
2022-07-25T06:58:26.890Z,54.51
2022-07-25T06:59:26.900Z,54.53
2022-07-25T07:00:26.970Z,54.93
2022-07-25T07:01:27.017Z,56.21
2022-07-25T07:02:26.844Z,56.81
2022-07-25T07:03:26.969Z,56.21
2022-07-25T07:04:26.822Z,54.76
2022-07-25T07:05:26.820Z,55.94
2022-07-25T07:06:26.801Z,56.17
2022-07-25T07:07:26.791Z,56.96
2022-07-25T07:08:26.782Z,56.93
2022-07-25T07:09:26.772Z,56.54
2022-07-25T07:10:26.775Z,55.75
2022-07-25T07:11:26.742Z,56.17
2022-07-25T07:12:26.732Z,55.38
2022-07-25T07:13:26.731Z,56.93
2022-07-25T07:14:26.713Z,57.82
2022-07-25T07:15:26.699Z,56.44
2022-07-25T07:16:26.823Z,56.04
2022-07-25T07:17:26.680Z,56.54
2022-07-25T07:18:26.665Z,57.03
2022-07-25T07:19:26.659Z,57.20
2022-07-25T07:20:26.651Z,57.10
2022-07-25T07:21:26.661Z,56.91
2022-07-25T07:22:26.621Z,56.09
2022-07-25T07:23:26.611Z,55.60
2022-07-25T07:24:26.607Z,54.90
2022-07-25T07:25:28.573Z,54.51
2022-07-25T07:26:26.619Z,56.09
2022-07-25T07:27:26.567Z,56.95
2022-07-25T07:28:26.554Z,55.66
2022-07-25T07:29:26.556Z,56.73
2022-07-25T07:30:44.173Z,56.53
2022-07-25T07:31:27.680Z,56.21
2022-07-25T07:32:26.518Z,56.18
2022-07-25T07:33:26.511Z,56.15
2022-07-25T07:34:26.488Z,56.05
2022-07-25T07:35:27.458Z,53.88
2022-07-25T07:36:26.468Z,53.00
2022-07-25T07:37:27.872Z,53.00
2022-07-25T07:38:26.444Z,53.00
2022-07-25T07:39:26.448Z,53.71
2022-07-25T07:40:26.424Z,54.90
2022-07-25T07:41:26.421Z,53.39
2022-07-25T07:42:26.402Z,52.80
2022-07-25T07:43:29.858Z,52.70
2022-07-25T07:44:26.388Z,53.00
2022-07-25T07:45:26.372Z,52.70
2022-07-25T07:46:26.429Z,53.96
2022-07-25T07:47:26.349Z,53.17
2022-07-25T07:48:26.360Z,52.87
2022-07-25T07:49:26.404Z,52.55
2022-07-25T07:50:26.320Z,52.16
2022-07-25T07:51:26.305Z,52.06
2022-07-25T07:52:26.302Z,52.36
2022-07-25T07:53:26.309Z,52.65
2022-07-25T07:54:26.271Z,52.23
2022-07-25T07:55:26.269Z,51.74
2022-07-25T07:56:26.258Z,51.91
2022-07-25T07:57:26.249Z,51.52
2022-07-25T07:58:26.242Z,51.62
2022-07-25T07:59:26.229Z,51.32
2022-07-25T08:00:26.214Z,50.71
2022-07-25T08:01:26.228Z,50.81
2022-07-25T08:02:26.250Z,51.40
2022-07-25T08:03:26.232Z,51.42
2022-07-25T08:04:26.274Z,52.11
2022-07-25T08:05:26.157Z,50.93
2022-07-25T08:06:26.145Z,51.32
2022-07-25T08:07:26.140Z,51.32
2022-07-25T08:08:30.953Z,51.35
2022-07-25T08:09:27.117Z,51.81
2022-07-25T08:10:26.110Z,51.74
2022-07-25T08:11:26.096Z,51.81
2022-07-25T08:12:26.084Z,52.21
2022-07-25T08:13:26.090Z,51.42
2022-07-25T08:14:26.062Z,51.62
2022-07-25T08:15:26.051Z,51.22
2022-07-25T08:16:26.142Z,51.62
2022-07-25T08:17:28.595Z,51.62
2022-07-25T08:18:26.034Z,49.06
2022-07-25T08:19:26.002Z,48.86
2022-07-25T08:20:38.107Z,49.16
2022-07-25T08:21:27.177Z,49.55
2022-07-25T08:22:25.978Z,50.14
2022-07-25T08:23:25.987Z,49.35
2022-07-25T08:24:25.947Z,49.55
2022-07-25T08:25:25.943Z,49.85
2022-07-25T08:26:25.932Z,50.44
2022-07-25T08:27:25.923Z,49.85
2022-07-25T08:28:25.905Z,50.71
2022-07-25T08:29:28.237Z,49.75
2022-07-25T08:30:25.889Z,49.06
2022-07-25T08:31:25.940Z,50.54
2022-07-25T08:32:25.927Z,49.65
2022-07-25T08:33:25.851Z,50.44
2022-07-25T08:34:25.856Z,49.55
2022-07-25T08:35:25.838Z,50.14
2022-07-25T08:36:25.823Z,49.16
2022-07-25T08:37:25.816Z,49.35
2022-07-25T08:38:25.803Z,49.18
2022-07-25T08:39:25.821Z,49.26
2022-07-25T08:40:25.772Z,49.18
2022-07-25T08:41:25.774Z,48.99
2022-07-25T08:42:25.764Z,49.08
2022-07-25T08:43:25.753Z,49.28
2022-07-25T08:44:25.738Z,49.60
2022-07-25T08:45:25.734Z,49.21
2022-07-25T08:46:25.812Z,48.91
2022-07-25T08:47:25.698Z,49.60
2022-07-25T08:48:25.887Z,49.90
2022-07-25T08:49:25.683Z,49.90
2022-07-25T08:50:25.703Z,49.60
2022-07-25T08:51:25.665Z,50.59
2022-07-25T08:52:25.643Z,50.19
2022-07-25T08:53:34.283Z,51.28
2022-07-25T08:54:26.630Z,50.88
2022-07-25T08:55:25.631Z,51.18
2022-07-25T08:56:25.598Z,50.39
2022-07-25T08:57:25.594Z,49.77
2022-07-25T08:58:25.585Z,49.58
2022-07-25T08:59:25.574Z,50.46
2022-07-25T09:00:25.576Z,50.46
2022-07-25T09:01:25.582Z,49.18
2022-07-25T09:02:25.717Z,49.38
2022-07-25T09:03:25.591Z,49.18
2022-07-25T09:04:25.520Z,49.48
2022-07-25T09:05:25.501Z,48.69
2022-07-25T09:06:25.506Z,47.78
2022-07-25T09:07:25.490Z,48.86
2022-07-25T09:09:56.280Z,47.52
2022-07-25T09:10:35.277Z,48.21
2022-07-25T09:12:50.442Z,47.55
2022-07-25T09:13:45.053Z,46.23
2022-07-25T09:14:45.039Z,45.28
2022-07-25T09:15:45.126Z,44.43
2022-07-25T09:16:45.287Z,42.73
2022-07-25T09:17:45.013Z,42.00
2022-07-25T09:18:45.003Z,42.00
2022-07-25T09:19:45.017Z,41.40
2022-07-25T09:20:44.992Z,41.81
2022-07-25T09:21:45.681Z,41.61
2022-07-25T09:22:44.973Z,41.50
2022-07-25T09:23:44.959Z,41.89
2022-07-25T09:24:44.965Z,41.61
2022-07-25T09:25:44.927Z,41.81
2022-07-25T09:26:44.939Z,41.71
2022-07-25T09:27:44.916Z,42.49
2022-07-25T09:28:44.905Z,42.69
2022-07-25T09:29:44.911Z,43.27
2022-07-25T09:30:44.925Z,42.30
2022-07-25T09:31:44.932Z,42.90
2022-07-25T09:32:44.901Z,42.47
2022-07-25T09:33:44.898Z,41.57
2022-07-25T09:34:44.857Z,42.24
2022-07-25T09:35:44.833Z,40.54
2022-07-25T09:36:44.852Z,39.72
2022-07-25T09:37:44.809Z,39.49
2022-07-25T09:38:44.799Z,39.74
2022-07-25T09:39:46.956Z,38.29
2022-07-25T09:40:44.775Z,38.78
2022-07-25T09:41:44.783Z,38.52
2022-07-25T09:42:44.756Z,38.93
2022-07-25T09:47:14.148Z,40.64
2022-07-25T09:48:14.147Z,40.47
2022-07-25T09:49:14.193Z,41.86
2022-07-25T09:50:14.108Z,41.57
2022-07-25T09:51:14.106Z,41.91
2022-07-25T09:52:14.100Z,42.49
2022-07-25T09:53:14.100Z,42.71
2022-07-25T09:54:14.074Z,42.93
2022-07-25T09:55:14.072Z,42.94
2022-07-25T09:56:14.058Z,44.43
2022-07-25T09:57:14.042Z,43.65
2022-07-25T09:58:14.047Z,44.65
2022-07-25T09:59:14.032Z,44.20
2022-07-25T10:00:19.214Z,45.01
2022-07-25T10:01:15.058Z,45.79
2022-07-25T10:02:14.009Z,45.42
2022-07-25T10:03:13.995Z,45.73
2022-07-25T10:04:13.971Z,46.44
2022-07-25T10:05:13.960Z,46.76
2022-07-25T10:06:13.947Z,47.06
2022-07-25T10:07:13.944Z,47.64
2022-07-25T10:08:13.948Z,47.37
2022-07-25T10:09:13.923Z,47.47
2022-07-25T10:10:13.906Z,48.69
2022-07-25T10:11:13.902Z,49.68
2022-07-25T10:12:13.890Z,49.90
2022-07-25T10:13:13.890Z,50.81
2022-07-25T10:14:13.874Z,50.63
2022-07-25T10:15:13.857Z,51.25
2022-07-25T10:16:13.847Z,51.74
2022-07-25T10:17:13.855Z,52.92
2022-07-25T10:18:13.852Z,52.85
2022-07-25T10:19:13.819Z,53.36
2022-07-25T10:20:13.808Z,54.16
2022-07-25T10:24:43.873Z,56.10
2022-07-25T10:25:47.248Z,56.50
2022-07-25T10:26:44.174Z,56.50
2022-07-25T10:27:43.187Z,56.13
2022-07-25T10:28:43.177Z,56.92
2022-07-25T10:29:43.141Z,58.60
2022-07-25T10:30:43.260Z,58.33
2022-07-25T10:31:49.289Z,58.43
2022-07-25T10:32:44.112Z,58.70
2022-07-25T10:33:43.115Z,58.70
2022-07-25T10:34:43.092Z,57.15
2022-07-25T10:35:43.084Z,58.33
2022-07-25T10:36:43.073Z,58.23
2022-07-25T10:37:48.683Z,58.83
2022-07-25T10:38:44.071Z,59.71
2022-07-25T10:39:43.043Z,59.81
2022-07-25T10:40:43.025Z,60.90
2022-07-25T10:41:43.021Z,60.08
2022-07-25T10:42:43.007Z,59.89
2022-07-25T10:43:48.177Z,58.02
2022-07-25T10:44:43.983Z,58.29
2022-07-25T10:45:43.073Z,56.71
2022-07-25T10:46:43.101Z,56.42
2022-07-25T10:47:42.967Z,56.32
2022-07-25T10:48:42.980Z,56.42
2022-07-25T10:50:00.049Z,56.15
2022-07-25T10:50:55.432Z,56.45
2022-07-25T10:51:43.908Z,56.25
2022-07-25T10:52:42.905Z,56.94
2022-07-25T10:53:42.911Z,56.57
2022-07-25T10:54:42.885Z,55.98
2022-07-25T10:55:42.864Z,56.40
2022-07-25T10:56:42.861Z,56.01
2022-07-25T10:58:07.910Z,55.68
2022-07-25T10:58:43.883Z,56.01
2022-07-25T10:59:42.828Z,55.91
2022-07-25T11:00:42.812Z,56.37
2022-07-25T11:01:42.914Z,55.68
2022-07-25T11:02:42.831Z,56.27
2022-07-25T11:03:42.779Z,56.35
2022-07-25T11:04:42.792Z,54.77
2022-07-25T11:05:42.771Z,54.08
2022-07-25T11:06:42.749Z,54.57
2022-07-25T11:07:58.590Z,54.57
2022-07-25T11:08:43.761Z,54.05
2022-07-25T11:09:42.716Z,54.13
2022-07-25T11:10:42.711Z,54.03
2022-07-25T11:11:42.704Z,53.31
2022-07-25T11:12:42.685Z,52.92
2022-07-25T11:13:42.680Z,52.60
2022-07-25T11:14:42.740Z,52.08
2022-07-25T11:15:42.661Z,51.69
2022-07-25T11:16:42.718Z,51.50
2022-07-25T11:17:42.630Z,51.00
2022-07-25T11:18:42.622Z,51.40
2022-07-25T11:19:42.622Z,51.59
2022-07-25T11:20:42.613Z,51.59
2022-07-25T11:21:42.596Z,50.71
2022-07-25T11:22:42.579Z,50.51
2022-07-25T11:23:42.572Z,51.69
2022-07-25T11:24:42.576Z,51.89
2022-07-25T11:25:42.550Z,51.59
2022-07-25T11:26:42.536Z,51.59
2022-07-25T11:27:42.535Z,51.00
2022-07-25T11:28:42.533Z,50.71
2022-07-25T11:29:42.536Z,51.30
2022-07-25T11:30:42.497Z,51.72
2022-07-25T11:31:42.535Z,51.69
2022-07-25T11:32:42.491Z,51.32
2022-07-25T11:33:42.469Z,51.79
2022-07-25T11:34:42.475Z,51.42
2022-07-25T11:35:42.452Z,51.72
2022-07-25T11:36:42.431Z,51.62
2022-07-25T11:37:42.421Z,52.14
2022-07-25T11:38:42.411Z,51.84
2022-07-25T11:39:42.405Z,51.97
2022-07-25T11:40:42.409Z,52.95
2022-07-25T11:41:42.376Z,52.75
2022-07-25T11:42:42.378Z,52.55
2022-07-25T11:43:42.364Z,52.75
2022-07-25T11:44:47.464Z,52.75
2022-07-25T11:45:43.376Z,51.76
2022-07-25T11:46:42.336Z,52.23
2022-07-25T11:47:42.321Z,52.23
2022-07-25T11:48:42.347Z,52.23
2022-07-25T11:49:42.301Z,51.74
2022-07-25T11:50:42.296Z,51.52
2022-07-25T11:51:42.272Z,50.04
2022-07-25T11:52:42.262Z,50.12
2022-07-25T11:53:42.257Z,49.73
2022-07-25T11:54:42.244Z,49.92
2022-07-25T11:55:42.263Z,49.13
2022-07-25T11:56:43.498Z,49.31
2022-07-25T11:57:42.218Z,49.21
2022-07-25T11:58:42.201Z,48.60
2022-07-25T11:59:42.186Z,49.29
2022-07-25T12:00:42.215Z,49.19
2022-07-25T12:01:42.178Z,48.40
2022-07-25T12:02:42.290Z,47.61
2022-07-25T12:03:42.332Z,48.33
2022-07-25T12:04:42.145Z,47.93
2022-07-25T12:05:42.152Z,49.31
2022-07-25T12:06:42.122Z,49.04
2022-07-25T12:07:42.102Z,49.63
2022-07-25T12:08:42.099Z,48.77
2022-07-25T12:09:42.088Z,49.75
2022-07-25T12:10:42.086Z,49.46
2022-07-25T12:11:42.078Z,49.65
2022-07-25T12:12:42.050Z,49.65
2022-07-25T12:13:42.043Z,48.86
2022-07-25T12:14:42.041Z,49.26
2022-07-25T12:15:42.025Z,49.46
2022-07-25T12:16:42.119Z,48.47
2022-07-25T12:17:42.005Z,47.58
2022-07-25T12:18:41.988Z,47.98
2022-07-25T12:19:41.986Z,48.47
2022-07-25T12:20:41.975Z,48.47
2022-07-25T12:21:41.987Z,48.47
2022-07-25T12:22:41.953Z,49.06
2022-07-25T12:23:41.942Z,48.47
2022-07-25T12:24:41.927Z,48.86
2022-07-25T12:25:41.918Z,48.18
2022-07-25T12:26:41.901Z,48.47
2022-07-25T12:27:41.904Z,48.08
2022-07-25T12:28:41.890Z,47.88
2022-07-25T12:29:41.869Z,47.58
2022-07-25T12:30:41.905Z,48.08
2022-07-25T12:31:41.852Z,48.77
2022-07-25T12:32:41.868Z,49.16
2022-07-25T12:33:41.828Z,49.26
2022-07-25T12:34:41.817Z,48.86
2022-07-25T12:35:41.814Z,48.27
2022-07-25T12:36:41.805Z,48.18
2022-07-25T12:37:41.799Z,48.47
2022-07-25T12:38:41.790Z,48.08
2022-07-25T12:39:41.762Z,49.26
2022-07-25T12:40:41.757Z,48.57
2022-07-25T12:41:41.750Z,48.27
2022-07-25T12:42:41.741Z,48.94
2022-07-25T12:43:41.765Z,47.56
2022-07-25T12:44:41.719Z,48.45
2022-07-25T12:45:41.738Z,48.25
2022-07-25T12:46:47.228Z,48.65
2022-07-25T12:47:42.684Z,48.25
2022-07-25T12:48:41.725Z,49.23
2022-07-25T12:49:41.710Z,48.25
2022-07-25T12:50:41.651Z,48.94
2022-07-25T12:51:41.646Z,49.26
2022-07-25T12:52:41.682Z,49.16
2022-07-25T12:53:42.664Z,49.68
2022-07-25T12:54:41.606Z,49.85
2022-07-25T12:55:41.622Z,49.48
2022-07-25T12:56:41.591Z,49.77
2022-07-25T12:57:41.586Z,50.46
2022-07-25T12:58:41.577Z,50.26
2022-07-25T12:59:41.563Z,50.46
2022-07-25T13:00:41.543Z,50.85
2022-07-25T13:01:41.668Z,50.46